createdAt,value
2022-11-25T00:00:03.214Z,95.10
2022-11-25T00:03:13.186Z,95.02
2022-11-25T00:06:20.790Z,94.73
2022-11-25T00:09:23.055Z,94.89
2022-11-25T00:12:25.078Z,94.50
2022-11-25T00:15:27.122Z,94.99
2022-11-25T00:18:28.946Z,94.97
2022-11-25T00:21:33.401Z,96.29
2022-11-25T00:24:35.523Z,97.20
2022-11-25T00:27:37.972Z,97.21
2022-11-25T00:30:39.980Z,98.51
2022-11-25T00:33:42.587Z,98.34
2022-11-25T00:36:44.457Z,99.48
2022-11-25T00:39:46.255Z,99.92
2022-11-25T00:43:06.723Z,100.00
2022-11-25T00:46:08.520Z,100.00
2022-11-25T00:49:12.941Z,99.79
2022-11-25T00:52:17.297Z,99.52
2022-11-25T00:55:19.288Z,98.87
2022-11-25T00:58:21.757Z,97.83
2022-11-25T01:01:24.907Z,97.71
2022-11-25T01:04:27.267Z,98.35
2022-11-25T01:07:29.039Z,97.86
2022-11-25T01:10:30.973Z,97.55
2022-11-25T01:13:35.096Z,96.63
2022-11-25T01:16:37.485Z,95.82
2022-11-25T01:19:42.322Z,92.48
2022-11-25T01:22:44.205Z,93.28
2022-11-25T01:25:45.930Z,93.62
2022-11-25T01:28:48.289Z,95.73
2022-11-25T01:31:50.425Z,96.59
2022-11-25T01:34:55.122Z,94.64
2022-11-25T01:37:56.989Z,92.86
2022-11-25T01:40:59.928Z,92.13
2022-11-25T01:44:07.348Z,92.77
2022-11-25T01:47:26.466Z,92.43
2022-11-25T01:50:29.047Z,92.37
2022-11-25T01:53:30.989Z,93.31
2022-11-25T01:56:38.592Z,92.25
2022-11-25T01:59:45.249Z,92.71
2022-11-25T02:02:49.825Z,94.29
2022-11-25T02:05:58.067Z,93.38
2022-11-25T02:09:04.496Z,92.99
2022-11-25T02:12:06.916Z,92.38
2022-11-25T02:15:09.126Z,92.60
2022-11-25T02:18:12.785Z,92.43
2022-11-25T02:21:18.571Z,90.44
2022-11-25T02:24:30.252Z,94.56
2022-11-25T02:27:32.668Z,93.91
2022-11-25T02:30:34.895Z,92.96
2022-11-25T02:33:37.578Z,92.31
2022-11-25T02:36:39.571Z,90.96
2022-11-25T02:39:42.140Z,89.43
2022-11-25T02:42:45.141Z,92.15
2022-11-25T02:46:02.002Z,94.97
2022-11-25T02:49:11.388Z,95.02
2022-11-25T02:52:16.615Z,93.85
2022-11-25T02:55:18.915Z,94.31
2022-11-25T02:58:21.572Z,94.24
2022-11-25T03:01:24.120Z,93.72
2022-11-25T03:04:25.938Z,93.79
2022-11-25T03:07:27.838Z,94.53
2022-11-25T03:10:30.424Z,94.16
2022-11-25T03:13:34.499Z,94.60
2022-11-25T03:16:37.557Z,94.65
2022-11-25T03:19:39.811Z,91.72
2022-11-25T03:22:45.360Z,91.82
2022-11-25T03:25:47.175Z,92.04
2022-11-25T03:28:49.139Z,92.44
2022-11-25T03:31:51.422Z,92.81
2022-11-25T03:34:55.450Z,93.75
2022-11-25T03:37:57.630Z,92.06
2022-11-25T03:40:59.641Z,92.28
2022-11-25T03:44:01.918Z,92.17
2022-11-25T03:47:04.427Z,92.35
2022-11-25T03:50:07.194Z,93.89
2022-11-25T03:53:09.365Z,94.83
2022-11-25T03:56:12.864Z,95.84
2022-11-25T03:59:15.039Z,96.65
2022-11-25T04:02:16.912Z,96.28
2022-11-25T04:05:18.889Z,94.57
2022-11-25T04:08:21.520Z,94.21
2022-11-25T04:11:43.859Z,94.08
2022-11-25T04:14:46.692Z,95.43
2022-11-25T04:17:48.565Z,97.05
2022-11-25T04:20:50.913Z,97.61
2022-11-25T04:23:52.903Z,98.13
2022-11-25T04:26:55.928Z,99.05
2022-11-25T04:29:58.374Z,98.67
2022-11-25T04:33:01.496Z,97.92
2022-11-25T04:36:04.256Z,97.04
2022-11-25T04:39:06.492Z,94.42
2022-11-25T04:42:28.927Z,94.07
2022-11-25T04:45:51.504Z,93.84
2022-11-25T04:48:55.903Z,94.21
2022-11-25T04:51:57.937Z,93.06
2022-11-25T04:55:00.564Z,94.43
2022-11-25T04:58:02.995Z,95.28
2022-11-25T05:01:07.837Z,94.88
2022-11-25T05:04:10.514Z,93.85
2022-11-25T05:07:13.166Z,93.13
2022-11-25T05:10:16.295Z,91.83
2022-11-25T05:13:22.018Z,92.89
2022-11-25T05:16:23.971Z,92.06
2022-11-25T05:19:27.137Z,92.95
2022-11-25T05:22:31.300Z,93.21
2022-11-25T05:25:33.481Z,93.36
2022-11-25T05:28:57.720Z,92.30
2022-11-25T05:31:59.847Z,92.95
2022-11-25T05:35:02.553Z,94.19
2022-11-25T05:38:04.621Z,93.28
2022-11-25T05:41:08.526Z,92.08
2022-11-25T05:44:10.726Z,91.66
2022-11-25T05:47:13.518Z,92.77
2022-11-25T05:50:16.703Z,92.82
2022-11-25T05:53:37.942Z,92.30
2022-11-25T05:56:40.266Z,93.73
2022-11-25T05:59:42.742Z,94.30
2022-11-25T06:02:51.267Z,93.96
2022-11-25T06:05:56.869Z,94.52
2022-11-25T06:08:59.126Z,94.05
2022-11-25T06:12:01.173Z,93.49
2022-11-25T06:15:04.305Z,92.88
2022-11-25T06:18:06.522Z,92.63
2022-11-25T06:21:11.087Z,92.84
2022-11-25T06:24:12.965Z,93.86
2022-11-25T06:27:17.664Z,93.62
2022-11-25T06:30:19.738Z,94.59
2022-11-25T06:33:34.472Z,93.83
2022-11-25T06:36:38.545Z,93.67
2022-11-25T06:39:40.623Z,92.62
2022-11-25T06:42:44.022Z,92.98
2022-11-25T06:45:46.395Z,93.10
2022-11-25T06:48:48.764Z,94.11
2022-11-25T06:51:51.272Z,93.46
2022-11-25T06:54:54.466Z,93.25
2022-11-25T06:58:13.920Z,93.47
2022-11-25T07:01:20.593Z,93.15
2022-11-25T07:04:22.927Z,93.50
2022-11-25T07:07:25.297Z,94.61
2022-11-25T07:10:27.589Z,93.70
2022-11-25T07:13:29.694Z,96.00
2022-11-25T07:16:32.897Z,96.12
2022-11-25T07:19:36.009Z,95.66
2022-11-25T07:22:38.031Z,95.00
2022-11-25T07:25:40.213Z,94.97
2022-11-25T07:28:42.677Z,94.94
2022-11-25T07:31:46.137Z,93.96
2022-11-25T07:34:50.721Z,94.32
2022-11-25T07:37:53.915Z,95.11
2022-11-25T07:40:56.127Z,95.00
2022-11-25T07:44:01.202Z,95.62
2022-11-25T07:47:04.745Z,95.58
2022-11-25T07:50:07.540Z,94.97
2022-11-25T07:53:09.354Z,94.55
2022-11-25T07:56:11.189Z,94.52
2022-11-25T07:59:15.613Z,94.34
2022-11-25T08:02:17.453Z,93.56
2022-11-25T08:05:19.425Z,93.09
2022-11-25T08:08:21.189Z,94.37
2022-11-25T08:11:28.755Z,96.12
2022-11-25T08:14:30.600Z,96.33
2022-11-25T08:17:32.542Z,95.72
2022-11-25T08:20:34.648Z,95.78
2022-11-25T08:23:38.033Z,95.04
2022-11-25T08:26:39.951Z,95.65
2022-11-25T08:29:42.040Z,95.18
2022-11-25T08:32:43.976Z,95.54
2022-11-25T08:35:53.631Z,96.30
2022-11-25T08:38:59.949Z,96.13
2022-11-25T08:42:06.813Z,96.84
2022-11-25T08:45:09.593Z,96.63
2022-11-25T08:48:11.502Z,95.05
2022-11-25T08:51:17.474Z,94.79
2022-11-25T08:54:19.242Z,94.60
2022-11-25T08:57:21.049Z,94.43
2022-11-25T09:00:23.378Z,94.69
2022-11-25T09:03:25.356Z,94.13
2022-11-25T09:06:28.866Z,93.32
2022-11-25T09:09:31.376Z,92.24
2022-11-25T09:12:33.345Z,91.12
2022-11-25T09:15:37.962Z,91.61
2022-11-25T09:18:40.152Z,91.22
2022-11-25T09:21:43.859Z,90.47
2022-11-25T09:24:46.414Z,91.19
2022-11-25T09:27:48.445Z,91.96
2022-11-25T09:30:50.661Z,90.47
2022-11-25T09:33:53.266Z,90.42
2022-11-25T09:36:55.347Z,90.71
2022-11-25T09:39:57.356Z,90.48
2022-11-25T09:43:22.450Z,91.24
2022-11-25T09:46:43.407Z,91.01
2022-11-25T09:49:53.487Z,90.79
2022-11-25T09:53:34.674Z,89.06
2022-11-25T09:57:06.998Z,88.82
2022-11-25T10:00:16.336Z,88.94
2022-11-25T10:03:33.859Z,88.64
2022-11-25T10:06:48.411Z,88.90
2022-11-25T10:09:54.038Z,88.46
2022-11-25T10:12:57.491Z,88.21
2022-11-25T10:16:02.448Z,88.09
2022-11-25T10:19:25.198Z,87.06
2022-11-25T10:22:30.375Z,87.29
2022-11-25T10:25:37.908Z,87.66
2022-11-25T10:28:42.254Z,87.19
2022-11-25T10:31:44.992Z,87.49
2022-11-25T10:34:51.725Z,87.13
2022-11-25T10:37:55.421Z,86.75
2022-11-25T10:40:57.777Z,86.52
2022-11-25T10:43:59.780Z,88.09
2022-11-25T10:47:14.616Z,88.07
2022-11-25T10:50:23.199Z,87.80
2022-11-25T10:53:26.785Z,87.55
2022-11-25T10:56:29.056Z,87.42
2022-11-25T10:59:36.792Z,85.54
2022-11-25T11:02:39.722Z,86.03
2022-11-25T11:05:50.589Z,87.02
2022-11-25T11:08:52.589Z,86.42
2022-11-25T11:11:54.690Z,84.77
2022-11-25T11:15:26.404Z,85.51
2022-11-25T11:18:39.346Z,85.03
2022-11-25T11:21:41.929Z,83.98
2022-11-25T11:24:44.073Z,83.03
2022-11-25T11:27:46.806Z,82.69
2022-11-25T11:30:57.358Z,82.40
2022-11-25T11:34:22.477Z,82.20
2022-11-25T11:37:46.614Z,82.59
2022-11-25T11:40:53.124Z,82.85
2022-11-25T11:43:58.073Z,81.70
2022-11-25T11:47:18.758Z,82.32
2022-11-25T11:50:26.744Z,82.06
2022-11-25T11:53:34.799Z,81.66
2022-11-25T11:56:43.374Z,81.89
2022-11-25T11:59:50.292Z,82.70
2022-11-25T12:03:19.845Z,81.45
2022-11-25T12:06:23.178Z,81.73
2022-11-25T12:09:28.518Z,81.26
2022-11-25T12:12:41.019Z,81.32
2022-11-25T12:15:48.965Z,82.45
2022-11-25T12:18:52.837Z,82.36
2022-11-25T12:22:05.417Z,82.31
2022-11-25T12:25:19.375Z,82.35
2022-11-25T12:28:36.933Z,81.38
2022-11-25T12:31:45.757Z,81.90
2022-11-25T12:34:56.484Z,82.32
2022-11-25T12:38:21.681Z,81.86
2022-11-25T12:41:44.299Z,81.82
2022-11-25T12:45:10.508Z,81.19
2022-11-25T12:48:13.101Z,81.65
2022-11-25T12:51:36.942Z,81.20
2022-11-25T12:54:52.736Z,81.10
2022-11-25T12:58:41.363Z,82.65
2022-11-25T13:02:02.251Z,81.56
2022-11-25T13:05:40.202Z,82.76
2022-11-25T13:08:58.282Z,82.30
2022-11-25T13:12:02.561Z,82.00
2022-11-25T13:15:27.282Z,83.26
2022-11-25T13:18:31.928Z,83.26
2022-11-25T13:21:34.575Z,83.50
2022-11-25T13:24:43.399Z,84.36
2022-11-25T13:27:45.935Z,83.79
2022-11-25T13:30:51.712Z,83.09
2022-11-25T13:34:04.151Z,84.84
2022-11-25T13:37:36.467Z,84.87
2022-11-25T13:40:39.792Z,85.07
2022-11-25T13:43:53.977Z,85.32
2022-11-25T13:46:58.473Z,85.80
2022-11-25T13:50:24.515Z,85.74
2022-11-25T13:53:35.215Z,85.83
2022-11-25T13:56:37.658Z,86.45
2022-11-25T13:59:42.690Z,86.34
2022-11-25T14:02:46.629Z,87.11
2022-11-25T14:06:28.583Z,86.77
2022-11-25T14:09:48.444Z,86.42
2022-11-25T14:13:02.866Z,86.62
2022-11-25T14:16:42.120Z,87.50
2022-11-25T14:19:55.707Z,87.56
2022-11-25T14:23:04.195Z,87.70
2022-11-25T14:26:34.155Z,87.61
2022-11-25T14:29:40.400Z,87.87
2022-11-25T14:32:53.692Z,86.81
2022-11-25T14:36:02.185Z,87.46
2022-11-25T14:39:14.324Z,87.13
2022-11-25T14:42:20.001Z,86.80
2022-11-25T14:45:27.292Z,86.59
2022-11-25T14:48:29.374Z,86.25
2022-11-25T14:51:35.852Z,86.31
2022-11-25T14:54:44.811Z,86.02
2022-11-25T14:57:47.123Z,86.96
2022-11-25T15:00:53.382Z,86.69
2022-11-25T15:04:14.264Z,86.61
2022-11-25T15:07:20.147Z,86.80
2022-11-25T15:10:43.130Z,86.37
2022-11-25T15:13:53.224Z,86.50
2022-11-25T15:16:56.494Z,86.38
2022-11-25T15:20:04.447Z,86.00
2022-11-25T15:23:12.949Z,86.19
2022-11-25T15:26:20.755Z,86.30
2022-11-25T15:29:23.241Z,86.75
2022-11-25T15:32:30.330Z,86.50
2022-11-25T15:35:32.509Z,86.17
2022-11-25T15:38:36.092Z,86.37
2022-11-25T15:41:43.797Z,87.09
2022-11-25T15:44:51.909Z,87.20
2022-11-25T15:47:53.882Z,87.72
2022-11-25T15:51:17.991Z,88.14
2022-11-25T15:54:30.641Z,88.15
2022-11-25T15:57:36.971Z,87.99
2022-11-25T16:00:41.884Z,87.79
2022-11-25T16:03:45.209Z,88.41
2022-11-25T16:06:56.571Z,88.22
2022-11-25T16:09:58.549Z,87.81
2022-11-25T16:13:26.043Z,87.42
2022-11-25T16:16:29.562Z,88.07
2022-11-25T16:19:39.932Z,87.77
2022-11-25T16:22:42.652Z,88.35
2022-11-25T16:25:58.369Z,87.88
2022-11-25T16:29:01.498Z,88.19
2022-11-25T16:32:15.319Z,88.58
2022-11-25T16:35:23.766Z,88.73
2022-11-25T16:38:27.094Z,88.07
2022-11-25T16:41:30.122Z,87.55
2022-11-25T16:44:35.039Z,87.79
2022-11-25T16:47:37.156Z,87.76
2022-11-25T16:50:39.454Z,88.86
2022-11-25T16:53:41.999Z,88.89
2022-11-25T16:56:45.326Z,88.58
2022-11-25T16:59:52.114Z,89.39
2022-11-25T17:02:58.538Z,88.75
2022-11-25T17:06:00.855Z,88.46
2022-11-25T17:09:03.499Z,89.18
2022-11-25T17:12:11.808Z,89.04
2022-11-25T17:15:17.324Z,89.13
2022-11-25T17:18:20.310Z,89.20
2022-11-25T17:21:28.531Z,88.98
2022-11-25T17:24:30.586Z,88.79
2022-11-25T17:27:33.560Z,89.01
2022-11-25T17:30:36.548Z,89.21
2022-11-25T17:33:39.114Z,89.48
2022-11-25T17:36:41.424Z,90.05
2022-11-25T17:39:44.091Z,89.91
2022-11-25T17:42:48.928Z,88.90
2022-11-25T17:45:51.321Z,89.01
2022-11-25T17:48:54.441Z,89.22
2022-11-25T17:51:56.920Z,89.84
2022-11-25T17:54:59.630Z,90.31
2022-11-25T17:58:02.050Z,89.91
2022-11-25T18:01:04.985Z,89.74
2022-11-25T18:04:35.406Z,89.15
2022-11-25T18:07:38.189Z,89.04
2022-11-25T18:10:40.895Z,89.02
2022-11-25T18:13:45.391Z,89.37
2022-11-25T18:16:49.090Z,88.89
2022-11-25T18:19:55.231Z,88.73
2022-11-25T18:22:58.607Z,88.67
2022-11-25T18:26:01.918Z,88.75
2022-11-25T18:29:04.939Z,88.09
2022-11-25T18:32:10.350Z,88.31
2022-11-25T18:35:32.692Z,88.75
2022-11-25T18:38:39.799Z,88.87
2022-11-25T18:41:43.007Z,88.81
2022-11-25T18:44:45.550Z,89.04
2022-11-25T18:47:51.385Z,88.92
2022-11-25T18:50:58.476Z,89.05
2022-11-25T18:54:00.799Z,89.00
2022-11-25T18:57:03.315Z,89.05
2022-11-25T19:00:41.056Z,89.71
2022-11-25T19:03:34.964Z,89.73
2022-11-25T19:06:39.622Z,89.35
2022-11-25T19:09:41.921Z,88.89
2022-11-25T19:12:49.083Z,88.86
2022-11-25T19:15:51.396Z,88.88
2022-11-25T19:18:54.142Z,90.04
2022-11-25T19:21:56.700Z,89.24
2022-11-25T19:24:59.904Z,88.33
2022-11-25T19:28:03.232Z,88.16
2022-11-25T19:31:07.289Z,88.40
2022-11-25T19:34:17.073Z,89.44
2022-11-25T19:37:24.308Z,90.04
2022-11-25T19:40:39.010Z,88.56
2022-11-25T19:43:42.203Z,87.73
2022-11-25T19:47:13.660Z,89.46
2022-11-25T19:50:17.736Z,88.86
2022-11-25T19:53:24.289Z,89.54
2022-11-25T19:56:27.679Z,91.07
2022-11-25T19:59:29.874Z,89.05
2022-11-25T20:02:32.300Z,87.90
2022-11-25T20:05:37.852Z,87.63
2022-11-25T20:08:40.559Z,88.00
2022-11-25T20:11:46.368Z,88.57
2022-11-25T20:14:50.657Z,88.33
2022-11-25T20:17:56.631Z,88.54
2022-11-25T20:21:01.834Z,89.46
2022-11-25T20:24:09.453Z,88.10
2022-11-25T20:27:13.038Z,88.10
2022-11-25T20:30:29.324Z,88.09
2022-11-25T20:33:31.439Z,88.03
2022-11-25T20:36:34.003Z,89.68
2022-11-25T20:39:36.131Z,88.95
2022-11-25T20:42:38.083Z,88.23
2022-11-25T20:45:40.336Z,87.76
2022-11-25T20:48:43.016Z,88.11
2022-11-25T20:51:48.313Z,87.99
2022-11-25T20:54:50.965Z,87.71
2022-11-25T20:57:53.755Z,88.38
2022-11-25T21:00:57.709Z,89.39
2022-11-25T21:04:00.326Z,89.30
2022-11-25T21:07:02.353Z,89.12
2022-11-25T21:10:17.947Z,89.28
2022-11-25T21:13:30.390Z,90.86
2022-11-25T21:16:32.334Z,90.77
2022-11-25T21:19:34.934Z,90.40
2022-11-25T21:22:41.298Z,90.25
2022-11-25T21:25:43.746Z,89.39
2022-11-25T21:28:47.618Z,90.53
2022-11-25T21:31:50.231Z,90.39
2022-11-25T21:34:52.962Z,89.74
2022-11-25T21:37:55.137Z,90.82
2022-11-25T21:40:58.651Z,90.42
2022-11-25T21:44:01.218Z,89.83
2022-11-25T21:47:19.507Z,89.41
2022-11-25T21:50:22.297Z,89.37
2022-11-25T21:53:24.847Z,88.84
2022-11-25T21:56:28.619Z,88.15
2022-11-25T21:59:31.166Z,89.31
2022-11-25T22:02:33.349Z,89.87
2022-11-25T22:05:35.528Z,90.13
2022-11-25T22:08:37.584Z,89.59
2022-11-25T22:11:42.303Z,90.05
2022-11-25T22:14:44.391Z,89.43
2022-11-25T22:17:57.288Z,90.25
2022-11-25T22:20:59.772Z,89.99
2022-11-25T22:24:01.671Z,89.54
2022-11-25T22:27:06.897Z,90.02
2022-11-25T22:30:18.249Z,89.10
2022-11-25T22:33:30.248Z,90.23
2022-11-25T22:36:34.843Z,90.74
2022-11-25T22:39:36.646Z,91.53
2022-11-25T22:42:39.371Z,91.89
2022-11-25T22:45:41.342Z,91.91
2022-11-25T22:48:43.652Z,91.91
2022-11-25T22:51:45.627Z,91.16
2022-11-25T22:54:48.213Z,90.66
2022-11-25T22:57:51.855Z,89.37
2022-11-25T23:00:55.430Z,90.16
2022-11-25T23:03:57.769Z,89.76
2022-11-25T23:07:00.098Z,90.05
2022-11-25T23:10:02.039Z,90.61
2022-11-25T23:13:03.925Z,91.57
2022-11-25T23:16:06.222Z,91.49
2022-11-25T23:19:16.949Z,91.18
2022-11-25T23:22:19.402Z,92.12
2022-11-25T23:25:22.521Z,90.49
2022-11-25T23:28:25.454Z,89.86
2022-11-25T23:31:27.508Z,89.32
2022-11-25T23:34:29.643Z,90.68
2022-11-25T23:37:32.096Z,90.94
2022-11-25T23:40:34.343Z,90.62
2022-11-25T23:43:36.467Z,90.33
2022-11-25T23:46:38.479Z,90.20
2022-11-25T23:49:44.219Z,91.74
2022-11-25T23:52:46.216Z,91.26
2022-11-25T23:55:50.561Z,92.00
2022-11-25T23:58:52.462Z,92.02
